Time;durP1;ratioP1;P1;durP2;ratioP2;P2;SDS_P1;SDS_P2;PMS_P1;PMS_P2;Temp;Humidity;BMP_temperature;BMP_pressure;BME280_temperature;BME280_humidity;BME280_pressure;Samples;Min_cycle;Max_cycle;Signal;HPM_P1;HPM_P2
2023/05/04 00:00:06;;;;;;;;;;;15.90;98.50;16.20;99645.00;;;;340695;28;82579;-91
2023/05/04 00:00:19;;;;;;;;;;;15.90;98.40;16.20;99644.00;;;;340077;28;93785;-91
2023/05/04 00:00:31;;;;;;;;;;;15.90;98.40;16.20;99643.00;;;;339499;28;82402;-92
2023/05/04 00:00:43;;;;;;;;;;;15.90;98.50;16.10;99644.00;;;;337435;28;95407;-91
2023/05/04 00:00:54;;;;;;;;;;;15.90;98.60;16.10;99647.00;;;;340788;28;82395;-91
2023/05/04 00:01:09;;;;;;;;;;;15.90;98.60;16.20;99649.00;;;;340032;28;96647;-92
2023/05/04 00:01:21;;;;;;;;;;;15.90;98.50;16.30;99643.00;;;;340876;28;83348;-91
2023/05/04 00:01:33;;;;;;;;;;;15.90;98.40;16.40;99650.00;;;;337435;28;95263;-92
2023/05/04 00:01:45;;;;;;;;;;;15.90;98.50;16.40;99645.00;;;;339539;28;82497;-92
2023/05/04 00:01:57;;;;;;;;;;;15.90;98.50;16.40;99641.00;;;;340046;28;96760;-92
2023/05/04 00:02:09;;;;;;;;;;;15.90;98.40;16.20;99640.00;;;;339478;28;83314;-92
2023/05/04 00:02:21;;;;;;;;;;;15.90;98.60;16.20;99647.00;;;;338644;28;96579;-91
2023/05/04 00:02:33;;;;;;;;;;;15.90;98.60;16.20;99643.00;;;;339812;28;83494;-92
2023/05/04 00:02:45;;;;;;;;;;;15.90;98.50;16.20;99639.00;;;;338680;28;96411;-91
2023/05/04 00:02:57;;;;;;;;;;;15.90;98.40;16.20;99640.00;;;;339472;28;82579;-92
2023/05/04 00:03:09;;;;;;;;;;;15.90;98.50;16.20;99634.00;;;;338702;28;96619;-92
2023/05/04 00:03:21;;;;;;;;;;;15.90;98.50;16.20;99635.00;;;;340776;28;82545;-92
2023/05/04 00:03:33;;;;;;;;;;;15.90;98.40;16.30;99643.00;;;;337486;28;95635;-91
2023/05/04 00:03:45;;;;;;;;;;;15.90;98.40;16.20;99636.00;;;;339405;28;83558;-92
2023/05/04 00:03:57;;;;;;;;;;;15.90;98.50;16.10;99636.00;;;;338649;28;97716;-89
2023/05/04 00:04:10;;;;;;;;;;;15.90;98.60;16.10;99641.00;;;;339374;28;83556;-92
2023/05/04 00:04:22;;;;;;;;;;;15.90;98.60;16.20;99641.00;;;;339970;28;95302;-92
2023/05/04 00:04:34;;;;;;;;;;;15.90;98.50;16.20;99645.00;;;;340778;28;83388;-92
2023/05/04 00:04:50;;;;;;;;;;;15.90;98.60;16.20;99648.00;;;;338455;28;95646;-91
2023/05/04 00:05:06;;;;;;;;;;;15.90;98.60;16.20;99639.00;;;;341337;28;82503;-92
2023/05/04 00:05:18;;;;;;;;;;;15.90;98.60;16.20;99646.00;;;;338584;28;96582;-91
2023/05/04 00:05:30;;;;;;;;;;;15.90;98.60;16.10;99639.00;;;;340820;28;83382;-92
2023/05/04 00:05:41;;;;;;;;;;;15.90;98.60;16.20;99647.00;;;;341270;28;96512;-92
2023/05/04 00:05:53;;;;;;;;;;;15.90;98.60;16.30;99637.00;;;;338189;28;83371;-90
2023/05/04 00:06:05;;;;;;;;;;;15.90;98.60;16.30;99652.00;;;;340930;28;95909;-91
2023/05/04 00:06:17;;;;;;;;;;;15.90;98.60;16.20;99643.00;;;;340728;28;82565;-92
2023/05/04 00:06:29;;;;;;;;;;;15.90;98.50;16.30;99637.00;;;;341406;28;96452;-92
2023/05/04 00:06:41;;;;;;;;;;;15.90;98.50;16.20;99640.00;;;;339574;28;82499;-92
2023/05/04 00:06:53;;;;;;;;;;;15.90;98.60;16.10;99636.00;;;;337479;28;96104;-91
2023/05/04 00:07:05;;;;;;;;;;;15.90;98.80;16.20;99642.00;;;;340414;28;82513;-92
2023/05/04 00:07:17;;;;;;;;;;;15.80;98.70;16.20;99640.00;;;;338766;28;96795;-92
2023/05/04 00:07:29;;;;;;;;;;;15.80;98.60;16.30;99639.00;;;;342088;28;83435;-92
2023/05/04 00:07:41;;;;;;;;;;;15.80;98.60;16.40;99644.00;;;;338709;28;95304;-92
2023/05/04 00:07:53;;;;;;;;;;;15.90;98.80;16.30;99645.00;;;;340776;28;83330;-92
2023/05/04 00:08:05;;;;;;;;;;;15.90;98.60;16.30;99634.00;;;;339952;28;97744;-91
2023/05/04 00:08:16;;;;;;;;;;;15.90;98.50;16.30;99640.00;;;;339451;28;83515;-90
2023/05/04 00:08:30;;;;;;;;;;;15.90;98.40;16.20;99643.00;;;;340002;28;96849;-93
2023/05/04 00:08:42;;;;;;;;;;;15.90;98.60;16.10;99644.00;;;;339440;28;83397;-92
2023/05/04 00:08:53;;;;;;;;;;;15.90;98.70;16.10;99639.00;;;;337339;28;95568;-91
2023/05/04 00:09:05;;;;;;;;;;;15.90;98.80;16.10;99635.00;;;;340021;28;83647;-91
2023/05/04 00:09:18;;;;;;;;;;;15.80;98.90;16.20;99646.00;;;;337259;28;95651;-92
2023/05/04 00:09:30;;;;;;;;;;;15.80;98.70;16.20;99634.00;;;;342262;28;82576;-92
2023/05/04 00:09:42;;;;;;;;;;;15.80;98.80;16.20;99641.00;;;;341235;28;95610;-92
2023/05/04 00:09:54;;;;;;;;;;;15.80;98.70;16.30;99641.00;;;;340707;28;83278;-92
2023/05/04 00:10:06;;;;;;;;;;;15.80;98.70;16.30;99637.00;;;;338575;28;95071;-92
2023/05/04 00:10:19;;;;;;;;;;;15.80;98.70;16.30;99642.00;;;;340840;28;83385;-91
2023/05/04 00:10:30;;;;;;;;;;;15.80;98.70;16.20;99642.00;;;;338618;28;96651;-91
2023/05/04 00:10:42;;;;;;;;;;;15.80;98.80;16.10;99641.00;;;;339336;28;83596;-91
2023/05/04 00:10:55;;;;;;;;;;;15.80;98.90;16.00;99640.00;;;;339877;28;95758;-92
2023/05/04 00:11:07;;;;;;;;;;;15.80;98.90;16.00;99632.00;;;;340839;28;83354;-91
2023/05/04 00:11:19;;;;;;;;;;;15.80;99.00;16.10;99640.00;;;;338526;28;95548;-92
2023/05/04 00:11:31;;;;;;;;;;;15.80;98.90;16.10;99635.00;;;;339636;28;83351;-92
2023/05/04 00:11:43;;;;;;;;;;;15.80;98.80;16.20;99633.00;;;;341379;28;95122;-92
2023/05/04 00:11:55;;;;;;;;;;;15.80;98.80;16.10;99640.00;;;;339574;28;82480;-91
2023/05/04 00:12:07;;;;;;;;;;;15.80;98.80;16.10;99642.00;;;;337441;28;97665;-91
2023/05/04 00:12:19;;;;;;;;;;;15.80;98.90;16.10;99632.00;;;;339488;28;82506;-91
2023/05/04 00:12:30;;;;;;;;;;;15.80;98.80;16.10;99645.00;;;;338768;28;96305;-92
2023/05/04 00:12:42;;;;;;;;;;;15.80;98.70;16.00;99644.00;;;;336741;28;83591;-92
2023/05/04 00:12:55;;;;;;;;;;;15.80;98.80;16.10;99641.00;;;;337393;28;96624;-92
2023/05/04 00:13:07;;;;;;;;;;;15.70;98.70;16.10;99642.00;;;;339493;28;82315;-92
2023/05/04 00:13:19;;;;;;;;;;;15.70;98.90;16.00;99643.00;;;;335783;28;95887;-91
2023/05/04 00:13:31;;;;;;;;;;;15.80;98.80;16.10;99642.00;;;;338042;28;82555;-91
2023/05/04 00:13:43;;;;;;;;;;;15.70;98.70;16.20;99634.00;;;;340024;28;96917;-92
2023/05/04 00:13:55;;;;;;;;;;;15.70;98.70;16.30;99642.00;;;;338289;28;83386;-90
2023/05/04 00:14:07;;;;;;;;;;;15.80;98.80;16.30;99635.00;;;;338309;28;95177;-92
2023/05/04 00:14:19;;;;;;;;;;;15.80;98.90;16.20;99633.00;;;;337013;28;83454;-92
2023/05/04 00:14:30;;;;;;;;;;;15.80;98.80;16.20;99633.00;;;;338917;28;96167;-92
2023/05/04 00:14:42;;;;;;;;;;;15.80;98.70;16.10;99646.00;;;;339562;28;83208;-92
2023/05/04 00:14:54;;;;;;;;;;;15.80;99.10;16.10;99644.00;;;;337358;28;96361;-92
2023/05/04 00:15:06;;;;;;;;;;;15.80;98.90;16.10;99639.00;;;;340879;28;82551;-92
2023/05/04 00:15:18;;;;;;;;;;;15.80;98.90;16.10;99640.00;;;;341417;28;96602;-91
2023/05/04 00:15:31;;;;;;;;;;;15.80;98.70;16.10;99634.00;;;;336907;28;83434;-92
2023/05/04 00:15:42;;;;;;;;;;;15.80;98.70;16.10;99635.00;;;;338901;28;96262;-92
2023/05/04 00:15:54;;;;;;;;;;;15.80;98.70;16.10;99634.00;;;;340784;28;83499;-92
2023/05/04 00:16:07;;;;;;;;;;;15.70;98.60;16.00;99636.00;;;;335797;28;97249;-91
2023/05/04 00:16:21;;;;;;;;;;;15.80;98.70;16.00;99648.00;;;;339455;28;83319;-92
2023/05/04 00:16:34;;;;;;;;;;;15.80;98.80;16.00;99640.00;;;;341235;28;94745;-92
2023/05/04 00:16:46;;;;;;;;;;;15.70;98.70;16.00;99633.00;;;;340847;28;83295;-92
2023/05/04 00:16:58;;;;;;;;;;;15.70;98.70;16.00;99633.00;;;;339940;28;96523;-91
2023/05/04 00:17:11;;;;;;;;;;;15.70;98.80;15.90;99637.00;;;;339548;28;83421;-91
2023/05/04 00:17:23;;;;;;;;;;;15.70;98.80;15.90;99639.00;;;;337391;28;96277;-92
2023/05/04 00:17:35;;;;;;;;;;;15.70;98.80;15.90;99632.00;;;;342233;28;83287;-92
2023/05/04 00:17:47;;;;;;;;;;;15.70;98.90;16.00;99640.00;;;;341946;28;96235;-92
2023/05/04 00:17:59;;;;;;;;;;;15.70;98.90;16.00;99640.00;;;;336851;28;83274;-92
2023/05/04 00:18:11;;;;;;;;;;;15.70;98.90;15.90;99642.00;;;;339820;28;95617;-91
2023/05/04 00:18:23;;;;;;;;;;;15.70;99.10;15.90;99643.00;;;;342187;28;82524;-91
2023/05/04 00:18:34;;;;;;;;;;;15.70;99.20;15.90;99635.00;;;;339737;28;96339;-93
2023/05/04 00:18:46;;;;;;;;;;;15.70;99.20;15.90;99642.00;;;;340782;28;83404;-92
2023/05/04 00:18:58;;;;;;;;;;;15.70;99.20;15.90;99639.00;;;;342645;28;96742;-92
2023/05/04 00:19:10;;;;;;;;;;;15.70;99.00;15.90;99633.00;;;;342032;28;82585;-92
2023/05/04 00:19:22;;;;;;;;;;;15.60;99.00;15.80;99635.00;;;;338546;28;95640;-91
2023/05/04 00:19:34;;;;;;;;;;;15.60;99.40;15.90;99637.00;;;;340917;28;82497;-92
2023/05/04 00:19:46;;;;;;;;;;;15.60;99.00;15.90;99638.00;;;;340069;28;96254;-92
2023/05/04 00:19:58;;;;;;;;;;;15.70;98.90;15.90;99630.00;;;;339418;28;83464;-92
2023/05/04 00:20:12;;;;;;;;;;;15.60;98.80;16.00;99644.00;;;;340008;28;96441;-92
2023/05/04 00:20:24;;;;;;;;;;;15.60;98.80;16.10;99647.00;;;;340864;28;83344;-92
2023/05/04 00:20:36;;;;;;;;;;;15.60;98.80;16.10;99634.00;;;;340093;28;96042;-92
2023/05/04 00:20:48;;;;;;;;;;;15.60;98.80;16.00;99639.00;;;;342250;28;83476;-92
2023/05/04 00:21:00;;;;;;;;;;;15.60;98.70;16.00;99640.00;;;;344047;28;95781;-91
2023/05/04 00:21:12;;;;;;;;;;;15.70;98.70;16.00;99636.00;;;;342300;28;82493;-91
2023/05/04 00:21:24;;;;;;;;;;;15.70;98.70;16.00;99641.00;;;;338817;28;96403;-91
2023/05/04 00:21:36;;;;;;;;;;;15.60;98.70;16.00;99641.00;;;;344636;28;82604;-92
2023/05/04 00:21:47;;;;;;;;;;;15.70;98.70;16.00;99637.00;;;;341526;28;94865;-92
2023/05/04 00:21:59;;;;;;;;;;;15.60;98.70;16.00;99634.00;;;;342286;28;83484;-93
2023/05/04 00:22:11;;;;;;;;;;;15.60;98.70;16.00;99635.00;;;;341290;28;97344;-92
2023/05/04 00:22:23;;;;;;;;;;;15.60;98.70;16.00;99637.00;;;;338094;28;83363;-92
2023/05/04 00:22:35;;;;;;;;;;;15.60;98.70;16.10;99636.00;;;;342827;28;96656;-91
2023/05/04 00:22:47;;;;;;;;;;;15.70;98.80;16.10;99634.00;;;;342301;28;82504;-92
2023/05/04 00:22:59;;;;;;;;;;;15.60;98.80;16.10;99643.00;;;;338792;28;95825;-92
2023/05/04 00:23:11;;;;;;;;;;;15.60;98.90;16.20;99638.00;;;;340855;28;82472;-92
2023/05/04 00:23:23;;;;;;;;;;;15.60;99.00;16.10;99634.00;;;;341502;28;94948;-92
2023/05/04 00:23:35;;;;;;;;;;;15.70;99.00;16.20;99634.00;;;;340867;28;83309;-91
2023/05/04 00:23:47;;;;;;;;;;;15.70;99.00;16.20;99628.00;;;;340215;28;95532;-92
2023/05/04 00:24:00;;;;;;;;;;;15.60;99.20;16.10;99625.00;;;;343689;28;82536;-92
2023/05/04 00:24:12;;;;;;;;;;;15.70;98.90;16.00;99624.00;;;;342708;28;96174;-92
2023/05/04 00:24:24;;;;;;;;;;;15.70;98.90;16.00;99630.00;;;;340841;28;82487;-91
2023/05/04 00:24:36;;;;;;;;;;;15.70;98.90;16.00;99630.00;;;;340107;28;96866;-93
2023/05/04 00:24:48;;;;;;;;;;;15.60;98.80;15.90;99623.00;;;;340868;28;82374;-92
2023/05/04 00:25:00;;;;;;;;;;;15.60;98.80;15.90;99634.00;;;;342728;28;96782;-92
2023/05/04 00:25:12;;;;;;;;;;;15.60;98.80;16.00;99633.00;;;;343423;28;82456;-92
2023/05/04 00:25:23;;;;;;;;;;;15.60;98.80;16.00;99620.00;;;;336151;28;96704;-91
2023/05/04 00:25:35;;;;;;;;;;;15.60;98.70;16.00;99631.00;;;;342187;28;82482;-92
2023/05/04 00:25:47;;;;;;;;;;;15.60;98.70;15.90;99633.00;;;;344159;28;96825;-92
2023/05/04 00:25:59;;;;;;;;;;;15.60;98.80;15.90;99630.00;;;;342275;28;82674;-91
2023/05/04 00:26:11;;;;;;;;;;;15.60;98.70;15.90;99620.00;;;;339983;28;97572;-92
2023/05/04 00:26:23;;;;;;;;;;;15.60;98.80;15.80;99624.00;;;;340788;28;83408;-92
2023/05/04 00:26:35;;;;;;;;;;;15.60;98.90;15.70;99631.00;;;;340025;28;96881;-92
2023/05/04 00:26:47;;;;;;;;;;;15.60;99.10;15.70;99624.00;;;;342071;28;82552;-92
2023/05/04 00:26:59;;;;;;;;;;;15.60;99.20;15.70;99631.00;;;;342792;28;95414;-91
2023/05/04 00:27:11;;;;;;;;;;;15.60;99.30;15.60;99629.00;;;;342123;28;82481;-92
2023/05/04 00:27:23;;;;;;;;;;;15.60;99.30;15.80;99620.00;;;;338786;28;95384;-92
2023/05/04 00:27:35;;;;;;;;;;;15.50;99.20;15.90;99621.00;;;;338064;28;82520;-92
2023/05/04 00:27:47;;;;;;;;;;;15.50;99.10;16.00;99625.00;;;;342829;28;96149;-92
2023/05/04 00:27:58;;;;;;;;;;;15.60;99.10;16.00;99632.00;;;;343340;28;82510;-92
2023/05/04 00:28:10;;;;;;;;;;;15.60;99.10;16.00;99614.00;;;;342675;28;97217;-92
2023/05/04 00:28:22;;;;;;;;;;;15.60;99.20;15.80;99626.00;;;;342202;28;83397;-92
2023/05/04 00:28:34;;;;;;;;;;;15.60;99.10;15.90;99627.00;;;;338890;28;95327;-91
2023/05/04 00:28:46;;;;;;;;;;;15.60;99.10;15.80;99625.00;;;;343538;28;83314;-91
2023/05/04 00:28:58;;;;;;;;;;;15.60;99.20;15.80;99624.00;;;;344117;28;95296;-92
2023/05/04 00:29:10;;;;;;;;;;;15.60;99.30;15.80;99619.00;;;;340794;28;83196;-92
2023/05/04 00:29:22;;;;;;;;;;;15.50;99.10;15.80;99617.00;;;;340137;28;93915;-92
2023/05/04 00:29:34;;;;;;;;;;;15.50;99.00;15.90;99621.00;;;;343609;28;83287;-92
2023/05/04 00:29:46;;;;;;;;;;;15.50;99.00;16.00;99624.00;;;;340158;28;94898;-92
2023/05/04 00:29:58;;;;;;;;;;;15.50;99.00;16.00;99618.00;;;;342299;28;82482;-92
2023/05/04 00:30:10;;;;;;;;;;;15.50;99.00;16.00;99627.00;;;;341451;28;97342;-93
2023/05/04 00:30:22;;;;;;;;;;;15.50;99.00;16.00;99622.00;;;;340818;28;82576;-92
2023/05/04 00:30:34;;;;;;;;;;;15.50;98.90;15.90;99627.00;;;;342466;28;94543;-92
2023/05/04 00:30:46;;;;;;;;;;;15.50;98.90;16.00;99624.00;;;;340787;28;82527;-92
2023/05/04 00:30:58;;;;;;;;;;;15.50;98.90;16.00;99619.00;;;;338682;28;96408;-92
2023/05/04 00:31:10;;;;;;;;;;;15.50;98.80;15.90;99624.00;;;;339567;28;82500;-92
2023/05/04 00:31:22;;;;;;;;;;;15.50;98.90;15.90;99629.00;;;;339894;28;96943;-91
2023/05/04 00:31:34;;;;;;;;;;;15.50;98.80;15.90;99617.00;;;;340725;28;83328;-91
2023/05/04 00:31:46;;;;;;;;;;;15.50;98.80;15.90;99622.00;;;;342628;28;96587;-92
2023/05/04 00:31:58;;;;;;;;;;;15.50;98.80;15.80;99609.00;;;;342217;28;82427;-91
2023/05/04 00:32:10;;;;;;;;;;;15.50;98.90;15.80;99627.00;;;;341299;28;97298;-92
2023/05/04 00:32:22;;;;;;;;;;;15.50;99.10;15.70;99626.00;;;;342095;28;83472;-91
2023/05/04 00:32:34;;;;;;;;;;;15.50;99.10;15.70;99626.00;;;;337355;28;96441;-91
2023/05/04 00:32:46;;;;;;;;;;;15.50;99.10;15.70;99627.00;;;;342030;28;83407;-92
2023/05/04 00:32:58;;;;;;;;;;;15.50;99.10;15.70;99627.00;;;;341254;28;96401;-92
2023/05/04 00:33:10;;;;;;;;;;;15.50;99.10;15.70;99625.00;;;;339324;28;83428;-92
2023/05/04 00:33:21;;;;;;;;;;;15.50;99.10;15.70;99622.00;;;;342665;28;96360;-91
2023/05/04 00:33:33;;;;;;;;;;;15.40;99.10;15.60;99627.00;;;;342189;28;82487;-91
2023/05/04 00:33:45;;;;;;;;;;;15.50;99.10;15.60;99625.00;;;;342856;28;96023;-91
2023/05/04 00:33:57;;;;;;;;;;;15.40;99.10;15.70;99632.00;;;;342093;28;83404;-91
2023/05/04 00:34:09;;;;;;;;;;;15.40;99.10;15.60;99627.00;;;;339968;28;97306;-91
2023/05/04 00:34:21;;;;;;;;;;;15.40;99.10;15.60;99626.00;;;;342015;28;83643;-92
2023/05/04 00:34:33;;;;;;;;;;;15.40;99.00;15.70;99635.00;;;;338782;28;95341;-92
2023/05/04 00:34:45;;;;;;;;;;;15.40;99.00;15.80;99620.00;;;;342071;28;83402;-91
2023/05/04 00:34:58;;;;;;;;;;;15.40;99.00;15.80;99630.00;;;;338729;28;95224;-92
2023/05/04 00:35:11;;;;;;;;;;;15.40;99.00;15.80;99623.00;;;;340862;28;82552;-92
2023/05/04 00:35:24;;;;;;;;;;;15.40;98.90;15.80;99624.00;;;;341422;28;95132;-91
2023/05/04 00:35:36;;;;;;;;;;;15.40;98.90;15.70;99617.00;;;;339559;28;83346;-92
2023/05/04 00:35:48;;;;;;;;;;;15.40;98.80;15.70;99630.00;;;;339994;28;95587;-91
2023/05/04 00:36:02;;;;;;;;;;;15.40;98.80;15.70;99626.00;;;;340882;28;82495;-91
2023/05/04 00:36:14;;;;;;;;;;;15.40;98.80;15.70;99619.00;;;;342696;28;96905;-91
2023/05/04 00:36:26;;;;;;;;;;;15.40;98.80;15.80;99628.00;;;;343569;28;82566;-92
2023/05/04 00:36:38;;;;;;;;;;;15.40;98.80;15.70;99619.00;;;;337356;28;95579;-91
2023/05/04 00:36:50;;;;;;;;;;;15.40;98.70;15.80;99625.00;;;;339547;28;82472;-92
2023/05/04 00:37:01;;;;;;;;;;;15.40;98.80;15.70;99619.00;;;;338665;28;95622;-90
2023/05/04 00:37:13;;;;;;;;;;;15.40;98.80;15.70;99627.00;;;;340676;28;83488;-92
2023/05/04 00:37:25;;;;;;;;;;;15.40;99.00;15.70;99623.00;;;;342369;28;95447;-92
2023/05/04 00:37:37;;;;;;;;;;;15.40;99.10;15.70;99625.00;;;;339366;28;82624;-92
2023/05/04 00:37:49;;;;;;;;;;;15.40;99.00;15.70;99631.00;;;;342660;28;95523;-92
2023/05/04 00:38:02;;;;;;;;;;;15.40;99.00;15.70;99634.00;;;;342146;28;82481;-91
2023/05/04 00:38:15;;;;;;;;;;;15.40;99.10;15.70;99623.00;;;;339930;28;95629;-92
2023/05/04 00:38:27;;;;;;;;;;;15.40;99.00;15.70;99625.00;;;;341854;28;83559;-92
2023/05/04 00:38:48;;;;;;;;;;;15.40;99.00;15.60;99630.00;;;;338667;28;95720;-92
2023/05/04 00:39:00;;;;;;;;;;;15.40;99.10;15.60;99624.00;;;;342006;28;83443;-92
2023/05/04 00:39:12;;;;;;;;;;;15.40;99.10;15.60;99618.00;;;;340006;28;96287;-92
2023/05/04 00:39:24;;;;;;;;;;;15.30;99.20;15.60;99618.00;;;;342046;28;83303;-92
2023/05/04 00:39:36;;;;;;;;;;;15.30;99.20;15.60;99614.00;;;;342641;28;96478;-92
2023/05/04 00:39:48;;;;;;;;;;;15.30;99.10;15.60;99623.00;;;;338136;28;82477;-92
2023/05/04 00:39:59;;;;;;;;;;;15.30;99.10;15.60;99628.00;;;;339995;28;95319;-92
2023/05/04 00:40:11;;;;;;;;;;;15.30;99.00;15.70;99619.00;;;;344813;28;83529;-92
2023/05/04 00:40:23;;;;;;;;;;;15.30;99.00;15.80;99618.00;;;;339863;28;97370;-92
2023/05/04 00:40:35;;;;;;;;;;;15.30;99.10;15.80;99616.00;;;;340737;28;83419;-92
2023/05/04 00:40:47;;;;;;;;;;;15.30;99.10;15.70;99617.00;;;;341270;28;95689;-92
2023/05/04 00:40:59;;;;;;;;;;;15.30;99.10;15.70;99621.00;;;;340742;28;82424;-92
2023/05/04 00:41:11;;;;;;;;;;;15.30;99.10;15.70;99632.00;;;;342725;28;95378;-92
2023/05/04 00:41:23;;;;;;;;;;;15.30;99.10;15.70;99619.00;;;;340594;28;83262;-92
2023/05/04 00:41:35;;;;;;;;;;;15.30;99.00;15.70;99616.00;;;;337365;28;95306;-92
2023/05/04 00:41:47;;;;;;;;;;;15.30;99.00;15.60;99624.00;;;;343461;28;83366;-92
2023/05/04 00:41:59;;;;;;;;;;;15.30;98.90;15.50;99623.00;;;;342689;28;96548;-92
2023/05/04 00:42:11;;;;;;;;;;;15.30;99.10;15.50;99619.00;;;;339424;28;83352;-92
2023/05/04 00:42:23;;;;;;;;;;;15.30;99.20;15.60;99636.00;;;;339623;28;95399;-92
2023/05/04 00:42:35;;;;;;;;;;;15.30;99.20;15.60;99620.00;;;;343204;28;82563;-92
2023/05/04 00:42:46;;;;;;;;;;;15.30;99.30;15.60;99622.00;;;;339974;28;96685;-92
2023/05/04 00:42:58;;;;;;;;;;;15.30;99.40;15.60;99617.00;;;;336774;28;83459;-92
2023/05/04 00:43:10;;;;;;;;;;;15.30;99.30;15.60;99629.00;;;;338638;28;95613;-92
2023/05/04 00:43:22;;;;;;;;;;;15.30;99.30;15.60;99624.00;;;;339444;28;83412;-92
2023/05/04 00:43:34;;;;;;;;;;;15.30;99.20;15.60;99626.00;;;;334639;29;96322;-92
2023/05/04 00:43:46;;;;;;;;;;;15.30;99.30;15.60;99615.00;;;;339282;28;82580;-92
2023/05/04 00:43:58;;;;;;;;;;;15.30;99.40;15.50;99621.00;;;;339997;28;96603;-91
2023/05/04 00:44:10;;;;;;;;;;;15.30;99.50;15.50;99625.00;;;;339335;28;83242;-92
2023/05/04 00:44:25;;;;;;;;;;;15.30;99.40;15.60;99619.00;;;;339665;28;96675;-92
2023/05/04 00:44:40;;;;;;;;;;;15.30;99.30;15.60;99623.00;;;;341983;28;83455;-92
2023/05/04 00:44:52;;;;;;;;;;;15.20;99.10;15.60;99622.00;;;;340070;28;95584;-92
2023/05/04 00:45:04;;;;;;;;;;;15.20;99.10;15.70;99626.00;;;;342065;28;83602;-92
2023/05/04 00:45:16;;;;;;;;;;;15.30;99.20;15.60;99621.00;;;;341039;28;95570;-92
2023/05/04 00:45:28;;;;;;;;;;;15.20;99.20;15.60;99622.00;;;;341830;28;83269;-92
2023/05/04 00:45:40;;;;;;;;;;;15.20;99.10;15.60;99617.00;;;;341421;28;95393;-92
2023/05/04 00:45:52;;;;;;;;;;;15.20;99.10;15.60;99629.00;;;;340988;28;83298;-93
2023/05/04 00:46:04;;;;;;;;;;;15.20;99.00;15.60;99622.00;;;;341505;28;97050;-92
2023/05/04 00:46:16;;;;;;;;;;;15.20;99.10;15.60;99629.00;;;;343750;28;83453;-92
2023/05/04 00:46:29;;;;;;;;;;;15.20;99.10;15.60;99630.00;;;;341488;28;97686;-93
2023/05/04 00:46:41;;;;;;;;;;;15.20;99.10;15.60;99632.00;;;;340928;28;82387;-92
2023/05/04 00:46:53;;;;;;;;;;;15.30;99.10;15.60;99628.00;;;;340148;28;95362;-92
2023/05/04 00:47:05;;;;;;;;;;;15.20;99.20;15.60;99631.00;;;;341035;28;83458;-91
2023/05/04 00:47:18;;;;;;;;;;;15.20;99.10;15.50;99628.00;;;;344292;28;95557;-92
2023/05/04 00:47:30;;;;;;;;;;;15.20;99.30;15.30;99631.00;;;;344031;28;82550;-91
2023/05/04 00:47:42;;;;;;;;;;;15.20;99.40;15.30;99638.00;;;;340541;28;94489;-92
2023/05/04 00:47:54;;;;;;;;;;;15.20;99.50;15.20;99623.00;;;;338664;28;82476;-91
2023/05/04 00:48:06;;;;;;;;;;;15.20;99.50;15.30;99631.00;;;;340574;28;95575;-93
2023/05/04 00:48:17;;;;;;;;;;;15.20;99.60;15.40;99627.00;;;;343881;28;83645;-92
2023/05/04 00:48:30;;;;;;;;;;;15.20;99.60;15.50;99630.00;;;;340287;28;97317;-92
2023/05/04 00:48:42;;;;;;;;;;;15.20;99.50;15.50;99624.00;;;;340014;28;82556;-92
2023/05/04 00:48:54;;;;;;;;;;;15.20;99.50;15.60;99624.00;;;;342128;28;95383;-92
2023/05/04 00:49:06;;;;;;;;;;;15.20;99.50;15.70;99630.00;;;;342576;28;83660;-93
2023/05/04 00:49:18;;;;;;;;;;;15.20;99.50;15.60;99629.00;;;;342339;28;95599;-91
2023/05/04 00:49:30;;;;;;;;;;;15.20;99.50;15.60;99630.00;;;;342798;28;82421;-93
2023/05/04 00:49:41;;;;;;;;;;;15.20;99.50;15.60;99642.00;;;;340594;28;96494;-93
2023/05/04 00:49:53;;;;;;;;;;;15.20;99.40;15.60;99623.00;;;;341429;28;82484;-92
2023/05/04 00:50:06;;;;;;;;;;;15.20;99.40;15.50;99638.00;;;;341964;28;96553;-92
2023/05/04 00:50:18;;;;;;;;;;;15.20;99.70;15.50;99626.00;;;;341303;28;82497;-92
2023/05/04 00:50:30;;;;;;;;;;;15.20;99.60;15.40;99627.00;;;;342188;28;97445;-92
2023/05/04 00:50:42;;;;;;;;;;;15.20;99.80;15.40;99627.00;;;;341580;28;83287;-92
2023/05/04 00:50:54;;;;;;;;;;;15.10;99.70;15.50;99631.00;;;;340998;28;95018;-92
2023/05/04 00:51:06;;;;;;;;;;;15.10;99.50;15.60;99629.00;;;;344680;28;82520;-93
2023/05/04 00:51:19;;;;;;;;;;;15.10;99.40;15.50;99637.00;;;;341363;28;95397;-92
2023/05/04 00:51:31;;;;;;;;;;;15.10;99.40;15.50;99636.00;;;;341345;28;82514;-92
2023/05/04 00:51:43;;;;;;;;;;;15.10;99.40;15.40;99628.00;;;;345935;28;95403;-91
2023/05/04 00:51:55;;;;;;;;;;;15.10;99.50;15.50;99641.00;;;;342619;28;82453;-92
2023/05/04 00:52:06;;;;;;;;;;;15.10;99.50;15.50;99624.00;;;;341906;28;96528;-92
2023/05/04 00:52:18;;;;;;;;;;;15.10;99.40;15.50;99626.00;;;;343631;28;82544;-91
2023/05/04 00:52:30;;;;;;;;;;;15.10;99.50;15.50;99628.00;;;;338605;28;95775;-92
2023/05/04 00:52:42;;;;;;;;;;;15.10;99.60;15.50;99620.00;;;;338171;28;82530;-92
2023/05/04 00:52:55;;;;;;;;;;;15.20;99.70;15.50;99632.00;;;;341439;28;94885;-92
2023/05/04 00:53:08;;;;;;;;;;;15.10;99.60;15.50;99633.00;;;;342247;28;83474;-93
2023/05/04 00:53:20;;;;;;;;;;;15.10;99.60;15.60;99633.00;;;;337267;28;95656;-92
2023/05/04 00:53:32;;;;;;;;;;;15.10;99.50;15.60;99617.00;;;;340725;28;82279;-92
2023/05/04 00:53:43;;;;;;;;;;;15.10;99.50;15.60;99630.00;;;;341363;28;96297;-92
2023/05/04 00:53:56;;;;;;;;;;;15.10;99.70;15.50;99623.00;;;;339415;28;83456;-92
2023/05/04 00:54:07;;;;;;;;;;;15.10;99.70;15.50;99626.00;;;;342509;28;94718;-92
2023/05/04 00:54:19;;;;;;;;;;;15.10;99.60;15.50;99617.00;;;;339248;28;83502;-92
2023/05/04 00:54:31;;;;;;;;;;;15.10;99.50;15.60;99629.00;;;;341240;28;97277;-92
2023/05/04 00:54:43;;;;;;;;;;;15.10;99.50;15.60;99626.00;;;;340703;28;83397;-92
2023/05/04 00:54:55;;;;;;;;;;;15.10;99.60;15.60;99636.00;;;;334668;29;96457;-92
2023/05/04 00:55:09;;;;;;;;;;;15.10;99.50;15.60;99625.00;;;;340699;28;83371;-93
2023/05/04 00:55:21;;;;;;;;;;;15.10;99.80;15.30;99624.00;;;;338599;28;95565;-91
2023/05/04 00:55:33;;;;;;;;;;;15.10;99.90;15.30;99623.00;;;;337875;28;83521;-91
2023/05/04 00:55:45;;;;;;;;;;;15.10;99.90;15.20;99616.00;;;;337096;28;96643;-92
2023/05/04 00:55:56;;;;;;;;;;;15.10;99.90;15.30;99621.00;;;;339220;28;83250;-92
2023/05/04 00:56:08;;;;;;;;;;;15.10;99.80;15.40;99617.00;;;;341303;28;96546;-92
2023/05/04 00:56:22;;;;;;;;;;;15.10;99.70;15.30;99618.00;;;;340632;28;83298;-92
2023/05/04 00:56:40;;;;;;;;;;;15.10;99.80;15.40;99621.00;;;;339852;28;96161;-92
2023/05/04 00:56:52;;;;;;;;;;;15.10;99.70;15.30;99622.00;;;;340716;28;83393;-92
2023/05/04 00:57:04;;;;;;;;;;;15.10;99.90;15.30;99624.00;;;;337247;28;96770;-91
2023/05/04 00:57:16;;;;;;;;;;;15.10;99.70;15.30;99624.00;;;;342057;28;82463;-92
2023/05/04 00:57:28;;;;;;;;;;;15.10;99.60;15.50;99623.00;;;;340000;28;95171;-92
2023/05/04 00:57:40;;;;;;;;;;;15.10;99.60;15.50;99615.00;;;;340670;28;82538;-92
2023/05/04 00:57:52;;;;;;;;;;;15.00;99.50;15.50;99618.00;;;;342567;28;96432;-91
2023/05/04 00:58:04;;;;;;;;;;;15.10;99.50;15.50;99617.00;;;;340682;28;83386;-92
2023/05/04 00:58:16;;;;;;;;;;;15.10;99.40;15.40;99628.00;;;;341278;28;95172;-91
2023/05/04 00:58:28;;;;;;;;;;;15.10;99.40;15.30;99628.00;;;;340750;28;83524;-92
2023/05/04 00:58:39;;;;;;;;;;;15.10;99.40;15.30;99624.00;;;;339833;28;96516;-92
2023/05/04 00:58:53;;;;;;;;;;;15.10;99.50;15.30;99624.00;;;;342015;28;83296;-92
2023/05/04 00:59:05;;;;;;;;;;;15.10;99.50;15.30;99634.00;;;;338581;28;96483;-92
2023/05/04 00:59:16;;;;;;;;;;;15.00;99.50;15.30;99632.00;;;;340538;28;83418;-92
2023/05/04 00:59:28;;;;;;;;;;;15.00;99.50;15.40;99636.00;;;;339727;28;93689;-92
2023/05/04 00:59:40;;;;;;;;;;;15.10;99.50;15.40;99628.00;;;;339300;28;83487;-92
2023/05/04 00:59:53;;;;;;;;;;;15.00;99.50;15.50;99629.00;;;;338667;28;96209;-92
2023/05/04 01:00:06;;;;;;;;;;;15.00;99.50;15.40;99624.00;;;;340132;28;82565;-92